الصفحة الرئيسية
METAR-TAF:

METAR-TAF

مطار :

مطار باريس شارل ديغول

باريس-مطار شارل ديغول الدولي, فرنسا

دائرة عرض: 49-01N, خط طول: 002-32E, ارتفاع: 118 متر

مراقبة الطقس الحالي

تاريخ ووقت الإصدار 16 دقيقة قبل الساعة 00:06UTC
ريح 3 عقدة من الشمال/الشمال الغربي
درجة الحرارة 15°درجة مئوية
الرطوبة 72%
ضغط 1024 hPa
الرؤية 10 كم أو أكثر
الغيوم لا تقل 1500 م ولا وجود لمزنة ركامية السحاب الأسود

METAR: LFPG 180006Z 34003KT CAVOK 15/10 Q1024 NOSIG

زمن: 02:22 (00:22 UTC)

توقعات

تاريخ ووقت الإصدار 1ساعة و 22 دقيقة قبل الساعة 23:00UTC
التوقعات صالحة من18 الساعة 00 UTC إلى 19 الساعة 06 UTC
ريح 3 عقدة من الشمال/الشمال الغربي
الرؤية 10 كم أو أكثر
الغيوم لا تقل 1500 م ولا وجود لمزنة ركامية السحاب الأسود

TAF: LFPG 172300Z 1800/1906 34003KT CAVOK TX26/1815Z TN12/1805Z

أرصاد الطقس والتوقعات من أكثر من 4000 مطار (تقارير الطقس للمطار METAR والتنبؤ بالطقس بالمطارTAF).

المحطات المتاحة هي النقط الصفراء والحمراء على الخريطة.

حرك المؤشر فوق النقطة لمعرفة اسم المحطة.

ثم انقر لمعرفة أرصاد وتوقعات الطقس.

لتغيير الخارطة: اضغط على الأزرار الخضراء مع رمز الصليب الأسود للتكبير. على الزر الأخضر مع شرطة للتصغير، أو على الأسهم الخضراء للخرائط المجاورة.


METAR-TAF: